EGV1339 EPKT-LIRN
Flight info
| Callsign | EGV1339 |
|---|---|
| Flight time | 1h 36m |
| Altitude | 40000 |
| Route | TUSIN DCT UPLAV DCT LEDVA DCT TISKO/N0466F390 DCT PETOV/N0465F400 DCT XAMIT/N0462F390 DCT SUXUB DCT ERIKA |
| Aircraft | A332/H-SDE3GHIJ2J3J5M1RVWXY/LB2D1 |
Departure
| Time | 2026-04-29 16:04 |
|---|---|
| Airport | Katowice Wojciech Korfanty International Airport (EPKT) |
Arrival
| Time | 2026-04-29 17:41 |
|---|---|
| Airport | Naples International Airport (LIRN) |
| Time | Latitude | Longitude | Altitude | Speed | Heading |
|---|---|---|---|---|---|
| 2026-04-29 15:35 | 50.47154 | 19.09014 | 1003 ft | 0 kts | 180° |
| 2026-04-29 15:54 | 50.47168 | 19.09014 | 1005 ft | 2 kts | 180° |
| 2026-04-29 15:55 | 50.47184 | 19.09014 | 1002 ft | 2 kts | 180° |
| 2026-04-29 15:55 | 50.47200 | 19.09013 | 1004 ft | 2 kts | 166° |
| 2026-04-29 15:55 | 50.47216 | 19.09004 | 1003 ft | 2 kts | 146° |
| 2026-04-29 15:55 | 50.47228 | 19.08987 | 1002 ft | 2 kts | 117° |
| 2026-04-29 15:56 | 50.47231 | 19.08962 | 1006 ft | 2 kts | 90° |
| 2026-04-29 15:56 | 50.47231 | 19.08958 | 1006 ft | 0 kts | 90° |
| 2026-04-29 15:59 | 50.47231 | 19.08959 | 1006 ft | 2 kts | 90° |
| 2026-04-29 15:59 | 50.47230 | 19.09035 | 1004 ft | 10 kts | 91° |
| 2026-04-29 16:00 | 50.47230 | 19.09187 | 1006 ft | 18 kts | 90° |
| 2026-04-29 16:00 | 50.47251 | 19.09377 | 1006 ft | 10 kts | 40° |
| 2026-04-29 16:00 | 50.47305 | 19.09388 | 1005 ft | 11 kts | 1° |
| 2026-04-29 16:00 | 50.47385 | 19.09390 | 1005 ft | 12 kts | 0° |
| 2026-04-29 16:01 | 50.47475 | 19.09391 | 1006 ft | 12 kts | 1° |
| 2026-04-29 16:01 | 50.47485 | 19.09391 | 1004 ft | 0 kts | 1° |
| 2026-04-29 16:02 | 50.47487 | 19.09391 | 1004 ft | 1 kts | 1° |
| 2026-04-29 16:02 | 50.47518 | 19.09392 | 1008 ft | 8 kts | 1° |
| 2026-04-29 16:02 | 50.47584 | 19.09354 | 1007 ft | 13 kts | 315° |
| 2026-04-29 16:03 | 50.47597 | 19.09242 | 1006 ft | 9 kts | 267° |
| 2026-04-29 16:03 | 50.47597 | 19.09226 | 1006 ft | 0 kts | 270° |
| 2026-04-29 16:03 | 50.47597 | 19.09173 | 1006 ft | 22 kts | 270° |
| 2026-04-29 16:04 | 50.47600 | 19.08521 | 1001 ft | 96 kts | 270° |
| 2026-04-29 16:04 | 50.47601 | 19.07132 | 1012 ft | 157 kts | 272° |
| 2026-04-29 16:04 | 50.47588 | 19.05298 | 1625 ft | 170 kts | 274° |
| 2026-04-29 16:04 | 50.47577 | 19.03405 | 2458 ft | 186 kts | 276° |
| 2026-04-29 16:05 | 50.47597 | 19.01165 | 2864 ft | 223 kts | 276° |
| 2026-04-29 16:05 | 50.47621 | 18.98554 | 3396 ft | 251 kts | 274° |
| 2026-04-29 16:05 | 50.47630 | 18.95752 | 4262 ft | 261 kts | 274° |
| 2026-04-29 16:05 | 50.47616 | 18.92865 | 5220 ft | 267 kts | 272° |
| 2026-04-29 16:06 | 50.47582 | 18.89928 | 6239 ft | 271 kts | 272° |
| 2026-04-29 16:06 | 50.47543 | 18.86954 | 7307 ft | 273 kts | 271° |
| 2026-04-29 16:06 | 50.47503 | 18.83951 | 8319 ft | 279 kts | 272° |
| 2026-04-29 16:06 | 50.47464 | 18.80866 | 9248 ft | 286 kts | 272° |
| 2026-04-29 16:07 | 50.47422 | 18.77722 | 10276 ft | 290 kts | 272° |
| 2026-04-29 16:07 | 50.47394 | 18.75609 | 10801 ft | 298 kts | 271° |
| 2026-04-29 16:07 | 50.47336 | 18.71041 | 11348 ft | 328 kts | 272° |
| 2026-04-29 16:07 | 50.47287 | 18.67342 | 11794 ft | 348 kts | 271° |
| 2026-04-29 16:08 | 50.47196 | 18.63496 | 12529 ft | 358 kts | 267° |
| 2026-04-29 16:08 | 50.46618 | 18.59653 | 13414 ft | 368 kts | 249° |
| 2026-04-29 16:08 | 50.45213 | 18.56263 | 14320 ft | 377 kts | 227° |
| 2026-04-29 16:08 | 50.43097 | 18.53805 | 14980 ft | 383 kts | 210° |
| 2026-04-29 16:09 | 50.40694 | 18.51926 | 15307 ft | 388 kts | 206° |
| 2026-04-29 16:09 | 50.38235 | 18.50151 | 15365 ft | 389 kts | 205° |
| 2026-04-29 16:09 | 50.35772 | 18.48375 | 15363 ft | 390 kts | 206° |
| 2026-04-29 16:09 | 50.33309 | 18.46579 | 15538 ft | 393 kts | 206° |
| 2026-04-29 16:10 | 50.30775 | 18.44924 | 16263 ft | 397 kts | 199° |
| 2026-04-29 16:10 | 50.28042 | 18.44197 | 17061 ft | 403 kts | 181° |
| 2026-04-29 16:10 | 50.25233 | 18.44654 | 17776 ft | 410 kts | 170° |
| 2026-04-29 16:10 | 50.22411 | 18.45524 | 18462 ft | 416 kts | 168° |
| 2026-04-29 16:11 | 50.19552 | 18.46458 | 19065 ft | 422 kts | 168° |
| 2026-04-29 16:11 | 50.16663 | 18.47390 | 19715 ft | 426 kts | 169° |
| 2026-04-29 16:11 | 50.13743 | 18.48318 | 20365 ft | 430 kts | 169° |
| 2026-04-29 16:11 | 50.10837 | 18.49230 | 20994 ft | 433 kts | 169° |
| 2026-04-29 16:12 | 50.07864 | 18.50157 | 21579 ft | 438 kts | 171° |
| 2026-04-29 16:12 | 50.05834 | 18.50786 | 21879 ft | 443 kts | 171° |
| 2026-04-29 16:12 | 50.01797 | 18.52033 | 22613 ft | 449 kts | 171° |
| 2026-04-29 16:12 | 49.98723 | 18.52984 | 23299 ft | 451 kts | 172° |
| 2026-04-29 16:13 | 49.95637 | 18.53935 | 23931 ft | 453 kts | 173° |
| 2026-04-29 16:13 | 49.92517 | 18.54668 | 24377 ft | 453 kts | 180° |
| 2026-04-29 16:13 | 49.89380 | 18.54604 | 24831 ft | 450 kts | 192° |
| 2026-04-29 16:13 | 49.86342 | 18.53586 | 25296 ft | 445 kts | 204° |
| 2026-04-29 16:14 | 49.83534 | 18.51679 | 25711 ft | 438 kts | 217° |
| 2026-04-29 16:14 | 49.81066 | 18.49005 | 26277 ft | 429 kts | 227° |
| 2026-04-29 16:14 | 49.78986 | 18.45735 | 26755 ft | 424 kts | 236° |
| 2026-04-29 16:14 | 49.77095 | 18.42224 | 27209 ft | 426 kts | 236° |
| 2026-04-29 16:15 | 49.75244 | 18.38618 | 27660 ft | 428 kts | 237° |
| 2026-04-29 16:15 | 49.73419 | 18.34964 | 28131 ft | 431 kts | 238° |
| 2026-04-29 16:15 | 49.71589 | 18.31258 | 28414 ft | 437 kts | 238° |
| 2026-04-29 16:15 | 49.70362 | 18.28767 | 28594 ft | 441 kts | 238° |
| 2026-04-29 16:16 | 49.68495 | 18.24981 | 29049 ft | 444 kts | 237° |
| 2026-04-29 16:16 | 49.66614 | 18.21186 | 29523 ft | 447 kts | 237° |
| 2026-04-29 16:16 | 49.64713 | 18.17371 | 29983 ft | 450 kts | 237° |
| 2026-04-29 16:16 | 49.62798 | 18.13538 | 30403 ft | 453 kts | 237° |
| 2026-04-29 16:17 | 49.60864 | 18.09678 | 30736 ft | 456 kts | 237° |
| 2026-04-29 16:17 | 49.58913 | 18.05791 | 31022 ft | 461 kts | 237° |
| 2026-04-29 16:17 | 49.56942 | 18.01870 | 31314 ft | 465 kts | 237° |
| 2026-04-29 16:17 | 49.54952 | 17.97918 | 31626 ft | 468 kts | 237° |
| 2026-04-29 16:18 | 49.52952 | 17.93956 | 32037 ft | 469 kts | 236° |
| 2026-04-29 16:18 | 49.50949 | 17.89993 | 32446 ft | 470 kts | 236° |
| 2026-04-29 16:18 | 49.48938 | 17.86019 | 32829 ft | 471 kts | 236° |
| 2026-04-29 16:18 | 49.46926 | 17.82051 | 33324 ft | 468 kts | 236° |
| 2026-04-29 16:19 | 49.44924 | 17.78109 | 33805 ft | 468 kts | 236° |
| 2026-04-29 16:19 | 49.42917 | 17.74155 | 34102 ft | 471 kts | 236° |
| 2026-04-29 16:19 | 49.40894 | 17.70174 | 34417 ft | 473 kts | 236° |
| 2026-04-29 16:19 | 49.38871 | 17.66198 | 34753 ft | 473 kts | 236° |
| 2026-04-29 16:20 | 49.36845 | 17.62221 | 35148 ft | 472 kts | 236° |
| 2026-04-29 16:20 | 49.34823 | 17.58262 | 35528 ft | 471 kts | 236° |
| 2026-04-29 16:20 | 49.32727 | 17.54381 | 35901 ft | 474 kts | 231° |
| 2026-04-29 16:20 | 49.30376 | 17.50904 | 36207 ft | 477 kts | 226° |
| 2026-04-29 16:21 | 49.27876 | 17.47558 | 36630 ft | 476 kts | 224° |
| 2026-04-29 16:21 | 49.25341 | 17.44301 | 36977 ft | 476 kts | 223° |
| 2026-04-29 16:21 | 49.22779 | 17.41082 | 37275 ft | 477 kts | 223° |
| 2026-04-29 16:21 | 49.20204 | 17.37873 | 37586 ft | 478 kts | 223° |
| 2026-04-29 16:22 | 49.17622 | 17.34663 | 37877 ft | 478 kts | 223° |
| 2026-04-29 16:22 | 49.15041 | 17.31451 | 38180 ft | 478 kts | 223° |
| 2026-04-29 16:22 | 49.12466 | 17.28240 | 38480 ft | 478 kts | 223° |
| 2026-04-29 16:22 | 49.09895 | 17.25031 | 38801 ft | 477 kts | 223° |
| 2026-04-29 16:23 | 49.07330 | 17.21828 | 39102 ft | 476 kts | 223° |
| 2026-04-29 16:23 | 49.04763 | 17.18625 | 39329 ft | 476 kts | 223° |
| 2026-04-29 16:23 | 49.02201 | 17.15430 | 39540 ft | 477 kts | 222° |
| 2026-04-29 16:23 | 48.99631 | 17.12229 | 39772 ft | 477 kts | 222° |
| 2026-04-29 16:24 | 48.97062 | 17.09035 | 40003 ft | 477 kts | 222° |
| 2026-04-29 16:24 | 48.94490 | 17.05843 | 40197 ft | 477 kts | 222° |
| 2026-04-29 16:24 | 48.91916 | 17.02652 | 40271 ft | 480 kts | 222° |
| 2026-04-29 16:25 | 48.86728 | 16.96241 | 40291 ft | 480 kts | 222° |
| 2026-04-29 16:25 | 48.81545 | 16.89857 | 40292 ft | 479 kts | 222° |
| 2026-04-29 16:26 | 48.76396 | 16.83543 | 40295 ft | 480 kts | 220° |
| 2026-04-29 16:26 | 48.70582 | 16.78480 | 40286 ft | 487 kts | 203° |
| 2026-04-29 16:27 | 48.64087 | 16.75413 | 40277 ft | 491 kts | 198° |
| 2026-04-29 16:27 | 48.57469 | 16.72791 | 40282 ft | 493 kts | 197° |
| 2026-04-29 16:28 | 48.50823 | 16.70211 | 40271 ft | 492 kts | 197° |
| 2026-04-29 16:28 | 48.44201 | 16.67592 | 40270 ft | 492 kts | 197° |
| 2026-04-29 16:29 | 48.37592 | 16.64948 | 40258 ft | 491 kts | 198° |
| 2026-04-29 16:29 | 48.30992 | 16.62307 | 40227 ft | 491 kts | 198° |
| 2026-04-29 16:30 | 48.24393 | 16.59676 | 40241 ft | 490 kts | 198° |
| 2026-04-29 16:30 | 48.17804 | 16.57056 | 40238 ft | 490 kts | 198° |
| 2026-04-29 16:31 | 48.11217 | 16.54444 | 40240 ft | 490 kts | 198° |
| 2026-04-29 16:31 | 48.04630 | 16.51840 | 40239 ft | 489 kts | 198° |
| 2026-04-29 16:32 | 47.98046 | 16.49244 | 40262 ft | 489 kts | 198° |
| 2026-04-29 16:32 | 47.91515 | 16.46676 | 40251 ft | 489 kts | 198° |
| 2026-04-29 16:33 | 47.81640 | 16.42806 | 40244 ft | 489 kts | 198° |
| 2026-04-29 16:33 | 47.75063 | 16.40236 | 40244 ft | 489 kts | 198° |
| 2026-04-29 16:34 | 47.68488 | 16.37674 | 40242 ft | 489 kts | 198° |
| 2026-04-29 16:34 | 47.61907 | 16.35117 | 40240 ft | 489 kts | 198° |
| 2026-04-29 16:35 | 47.55323 | 16.32564 | 40239 ft | 489 kts | 198° |
| 2026-04-29 16:35 | 47.48738 | 16.30019 | 40240 ft | 489 kts | 198° |
| 2026-04-29 16:36 | 47.42166 | 16.27485 | 40234 ft | 487 kts | 198° |
| 2026-04-29 16:36 | 47.35608 | 16.24963 | 40232 ft | 486 kts | 198° |
| 2026-04-29 16:37 | 47.29061 | 16.22451 | 40231 ft | 486 kts | 198° |
| 2026-04-29 16:37 | 47.23622 | 16.20370 | 40226 ft | 485 kts | 198° |
| 2026-04-29 16:38 | 47.15988 | 16.17455 | 40229 ft | 484 kts | 198° |
| 2026-04-29 16:38 | 47.09508 | 16.14988 | 40227 ft | 484 kts | 198° |
| 2026-04-29 16:39 | 47.02983 | 16.12511 | 40231 ft | 484 kts | 198° |
| 2026-04-29 16:39 | 46.96473 | 16.10046 | 40229 ft | 483 kts | 198° |
| 2026-04-29 16:40 | 46.89966 | 16.07585 | 40230 ft | 483 kts | 198° |
| 2026-04-29 16:40 | 46.83458 | 16.05132 | 40233 ft | 482 kts | 198° |
| 2026-04-29 16:41 | 46.76960 | 16.02688 | 40234 ft | 482 kts | 198° |
| 2026-04-29 16:41 | 46.70458 | 16.00276 | 40239 ft | 483 kts | 195° |
| 2026-04-29 16:42 | 46.63739 | 15.99201 | 40231 ft | 488 kts | 186° |
| 2026-04-29 16:42 | 46.56996 | 15.98836 | 40244 ft | 489 kts | 185° |
| 2026-04-29 16:43 | 46.50186 | 15.98600 | 40235 ft | 489 kts | 185° |
| 2026-04-29 16:43 | 46.43379 | 15.98353 | 40234 ft | 489 kts | 185° |
| 2026-04-29 16:44 | 46.36579 | 15.98079 | 40241 ft | 488 kts | 185° |
| 2026-04-29 16:44 | 46.29858 | 15.97173 | 40241 ft | 481 kts | 197° |
| 2026-04-29 16:45 | 46.23387 | 15.94796 | 40238 ft | 478 kts | 200° |
| 2026-04-29 16:45 | 46.17001 | 15.92146 | 40245 ft | 477 kts | 200° |
| 2026-04-29 16:46 | 46.10633 | 15.89468 | 40245 ft | 477 kts | 200° |
| 2026-04-29 16:46 | 46.04257 | 15.86820 | 40237 ft | 477 kts | 200° |
| 2026-04-29 16:47 | 45.97885 | 15.84202 | 40241 ft | 475 kts | 200° |
| 2026-04-29 16:47 | 45.91522 | 15.81596 | 40239 ft | 475 kts | 200° |
| 2026-04-29 16:48 | 45.85162 | 15.78998 | 40229 ft | 475 kts | 200° |
| 2026-04-29 16:48 | 45.78852 | 15.76428 | 40240 ft | 474 kts | 200° |
| 2026-04-29 16:49 | 45.72503 | 15.73847 | 40242 ft | 474 kts | 200° |
| 2026-04-29 16:49 | 45.66160 | 15.71271 | 40241 ft | 474 kts | 200° |
| 2026-04-29 16:50 | 45.59810 | 15.68702 | 40238 ft | 474 kts | 200° |
| 2026-04-29 16:50 | 45.53464 | 15.66141 | 40236 ft | 474 kts | 200° |
| 2026-04-29 16:51 | 45.47116 | 15.63584 | 40229 ft | 474 kts | 200° |
| 2026-04-29 16:51 | 45.40765 | 15.61032 | 40243 ft | 473 kts | 200° |
| 2026-04-29 16:52 | 45.34434 | 15.58496 | 40241 ft | 473 kts | 200° |
| 2026-04-29 16:52 | 45.28106 | 15.55965 | 40227 ft | 472 kts | 200° |
| 2026-04-29 16:53 | 45.21788 | 15.53444 | 40220 ft | 471 kts | 200° |
| 2026-04-29 16:53 | 45.15470 | 15.50924 | 40230 ft | 471 kts | 200° |
| 2026-04-29 16:54 | 45.09164 | 15.48419 | 40192 ft | 471 kts | 200° |
| 2026-04-29 16:54 | 45.02898 | 15.45940 | 40207 ft | 470 kts | 200° |
| 2026-04-29 16:55 | 44.96605 | 15.43453 | 40213 ft | 469 kts | 200° |
| 2026-04-29 16:55 | 44.90313 | 15.40969 | 40195 ft | 470 kts | 200° |
| 2026-04-29 16:56 | 44.84019 | 15.38492 | 40191 ft | 469 kts | 200° |
| 2026-04-29 16:56 | 44.77736 | 15.36026 | 40176 ft | 469 kts | 200° |
| 2026-04-29 16:57 | 44.71451 | 15.33563 | 40143 ft | 468 kts | 199° |
| 2026-04-29 16:57 | 44.65176 | 15.31111 | 40134 ft | 467 kts | 199° |
| 2026-04-29 16:58 | 44.58909 | 15.28666 | 40140 ft | 467 kts | 199° |
| 2026-04-29 16:58 | 44.52647 | 15.26228 | 40120 ft | 467 kts | 199° |
| 2026-04-29 16:59 | 44.46420 | 15.23812 | 40100 ft | 467 kts | 199° |
| 2026-04-29 16:59 | 44.40161 | 15.21388 | 40067 ft | 467 kts | 199° |
| 2026-04-29 17:00 | 44.33904 | 15.18969 | 40060 ft | 467 kts | 199° |
| 2026-04-29 17:00 | 44.27641 | 15.16552 | 40035 ft | 466 kts | 199° |
| 2026-04-29 17:01 | 44.21391 | 15.14146 | 40029 ft | 466 kts | 199° |
| 2026-04-29 17:01 | 44.15137 | 15.11744 | 40021 ft | 466 kts | 199° |
| 2026-04-29 17:02 | 44.08890 | 15.09351 | 40026 ft | 465 kts | 199° |
| 2026-04-29 17:02 | 44.02645 | 15.06963 | 40025 ft | 465 kts | 199° |
| 2026-04-29 17:03 | 43.96444 | 15.04597 | 40019 ft | 465 kts | 199° |
| 2026-04-29 17:03 | 43.90206 | 15.02222 | 40028 ft | 465 kts | 199° |
| 2026-04-29 17:04 | 43.83962 | 14.99850 | 40028 ft | 465 kts | 199° |
| 2026-04-29 17:04 | 43.77721 | 14.97484 | 40029 ft | 465 kts | 199° |
| 2026-04-29 17:05 | 43.71479 | 14.95124 | 40025 ft | 465 kts | 199° |
| 2026-04-29 17:05 | 43.65232 | 14.92766 | 40028 ft | 465 kts | 199° |
| 2026-04-29 17:06 | 43.60045 | 14.90812 | 40023 ft | 465 kts | 199° |
| 2026-04-29 17:06 | 43.53794 | 14.88462 | 40021 ft | 465 kts | 199° |
| 2026-04-29 17:07 | 43.47538 | 14.86116 | 40020 ft | 465 kts | 199° |
| 2026-04-29 17:07 | 43.41286 | 14.83776 | 40018 ft | 465 kts | 199° |
| 2026-04-29 17:08 | 43.35032 | 14.81440 | 40020 ft | 466 kts | 199° |
| 2026-04-29 17:08 | 43.28871 | 14.78787 | 39914 ft | 462 kts | 203° |
| 2026-04-29 17:09 | 43.25858 | 14.77296 | 39675 ft | 459 kts | 204° |
| 2026-04-29 17:09 | 43.22909 | 14.75801 | 39445 ft | 457 kts | 204° |
| 2026-04-29 17:09 | 43.19936 | 14.74274 | 39215 ft | 457 kts | 204° |
| 2026-04-29 17:09 | 43.16962 | 14.72741 | 39052 ft | 457 kts | 204° |
| 2026-04-29 17:10 | 43.11013 | 14.69680 | 39017 ft | 457 kts | 204° |
| 2026-04-29 17:10 | 43.05057 | 14.66633 | 39016 ft | 457 kts | 204° |
| 2026-04-29 17:11 | 42.99101 | 14.63598 | 39021 ft | 457 kts | 204° |
| 2026-04-29 17:11 | 42.93116 | 14.60555 | 39019 ft | 460 kts | 204° |
| 2026-04-29 17:12 | 42.87114 | 14.57512 | 39008 ft | 460 kts | 204° |
| 2026-04-29 17:12 | 42.82120 | 14.54984 | 39015 ft | 460 kts | 204° |
| 2026-04-29 17:13 | 42.75098 | 14.51437 | 39014 ft | 460 kts | 204° |
| 2026-04-29 17:13 | 42.69094 | 14.48409 | 39010 ft | 460 kts | 203° |
| 2026-04-29 17:14 | 42.66092 | 14.46899 | 38836 ft | 459 kts | 203° |
| 2026-04-29 17:14 | 42.63100 | 14.45395 | 38583 ft | 458 kts | 203° |
| 2026-04-29 17:14 | 42.60112 | 14.43894 | 38295 ft | 458 kts | 203° |
| 2026-04-29 17:14 | 42.57122 | 14.42394 | 38016 ft | 458 kts | 203° |
| 2026-04-29 17:15 | 42.54141 | 14.40901 | 37738 ft | 454 kts | 203° |
| 2026-04-29 17:15 | 42.51194 | 14.39428 | 37344 ft | 449 kts | 203° |
| 2026-04-29 17:15 | 42.48314 | 14.37989 | 36922 ft | 446 kts | 203° |
| 2026-04-29 17:15 | 42.45415 | 14.36540 | 36460 ft | 443 kts | 203° |
| 2026-04-29 17:16 | 42.42530 | 14.35099 | 36014 ft | 440 kts | 203° |
| 2026-04-29 17:16 | 42.39663 | 14.33669 | 35532 ft | 439 kts | 203° |
| 2026-04-29 17:16 | 42.36802 | 14.32244 | 35051 ft | 437 kts | 203° |
| 2026-04-29 17:16 | 42.33956 | 14.30827 | 34515 ft | 437 kts | 203° |
| 2026-04-29 17:17 | 42.31099 | 14.29407 | 33921 ft | 438 kts | 203° |
| 2026-04-29 17:17 | 42.28227 | 14.27982 | 33126 ft | 441 kts | 203° |
| 2026-04-29 17:17 | 42.25343 | 14.26555 | 32411 ft | 442 kts | 203° |
| 2026-04-29 17:17 | 42.22451 | 14.25127 | 31666 ft | 444 kts | 203° |
| 2026-04-29 17:18 | 42.19542 | 14.23693 | 30958 ft | 445 kts | 203° |
| 2026-04-29 17:18 | 42.16650 | 14.22268 | 30442 ft | 440 kts | 203° |
| 2026-04-29 17:18 | 42.13785 | 14.20858 | 29877 ft | 436 kts | 202° |
| 2026-04-29 17:18 | 42.10958 | 14.19464 | 29292 ft | 428 kts | 202° |
| 2026-04-29 17:19 | 42.08182 | 14.18107 | 28799 ft | 423 kts | 202° |
| 2026-04-29 17:19 | 42.05419 | 14.16750 | 28263 ft | 422 kts | 202° |
| 2026-04-29 17:19 | 42.02694 | 14.15405 | 27759 ft | 422 kts | 202° |
| 2026-04-29 17:19 | 41.99949 | 14.14044 | 27228 ft | 420 kts | 202° |
| 2026-04-29 17:20 | 41.97224 | 14.12696 | 26694 ft | 415 kts | 202° |
| 2026-04-29 17:20 | 41.94521 | 14.11364 | 26177 ft | 412 kts | 202° |
| 2026-04-29 17:20 | 41.91837 | 14.10045 | 25657 ft | 411 kts | 202° |
| 2026-04-29 17:20 | 41.89141 | 14.08783 | 25140 ft | 411 kts | 198° |
| 2026-04-29 17:21 | 41.86343 | 14.07972 | 24571 ft | 412 kts | 192° |
| 2026-04-29 17:21 | 41.83524 | 14.07340 | 24032 ft | 410 kts | 191° |
| 2026-04-29 17:21 | 41.80713 | 14.06765 | 23487 ft | 407 kts | 190° |
| 2026-04-29 17:21 | 41.77917 | 14.06216 | 22896 ft | 405 kts | 190° |
| 2026-04-29 17:22 | 41.75140 | 14.05656 | 22363 ft | 401 kts | 190° |
| 2026-04-29 17:22 | 41.72392 | 14.05135 | 21835 ft | 397 kts | 190° |
| 2026-04-29 17:22 | 41.69669 | 14.04630 | 21312 ft | 393 kts | 190° |
| 2026-04-29 17:22 | 41.66968 | 14.04168 | 20799 ft | 391 kts | 187° |
| 2026-04-29 17:23 | 41.64249 | 14.04254 | 20272 ft | 393 kts | 172° |
| 2026-04-29 17:23 | 41.61637 | 14.05365 | 19736 ft | 397 kts | 154° |
| 2026-04-29 17:23 | 41.59377 | 14.07498 | 19195 ft | 400 kts | 137° |
| 2026-04-29 17:23 | 41.57441 | 14.10165 | 18641 ft | 400 kts | 133° |
| 2026-04-29 17:24 | 41.55579 | 14.12917 | 18094 ft | 398 kts | 132° |
| 2026-04-29 17:24 | 41.53730 | 14.15654 | 17533 ft | 395 kts | 132° |
| 2026-04-29 17:24 | 41.51887 | 14.18360 | 17075 ft | 390 kts | 133° |
| 2026-04-29 17:24 | 41.50096 | 14.20975 | 16958 ft | 374 kts | 133° |
| 2026-04-29 17:25 | 41.48372 | 14.23481 | 16845 ft | 359 kts | 133° |
| 2026-04-29 17:25 | 41.46713 | 14.25881 | 16728 ft | 347 kts | 133° |
| 2026-04-29 17:25 | 41.45103 | 14.28204 | 16572 ft | 336 kts | 133° |
| 2026-04-29 17:25 | 41.43539 | 14.30456 | 16418 ft | 326 kts | 133° |
| 2026-04-29 17:26 | 41.41967 | 14.32560 | 16270 ft | 316 kts | 138° |
| 2026-04-29 17:26 | 41.40360 | 14.34480 | 16122 ft | 306 kts | 139° |
| 2026-04-29 17:26 | 41.38783 | 14.36317 | 16000 ft | 297 kts | 140° |
| 2026-04-29 17:26 | 41.37235 | 14.38115 | 15685 ft | 295 kts | 140° |
| 2026-04-29 17:27 | 41.35692 | 14.39908 | 15399 ft | 294 kts | 140° |
| 2026-04-29 17:27 | 41.34149 | 14.41674 | 15109 ft | 291 kts | 143° |
| 2026-04-29 17:27 | 41.32499 | 14.43205 | 14845 ft | 288 kts | 148° |
| 2026-04-29 17:27 | 41.30810 | 14.44621 | 14585 ft | 286 kts | 149° |
| 2026-04-29 17:28 | 41.29134 | 14.46002 | 14311 ft | 280 kts | 149° |
| 2026-04-29 17:28 | 41.27666 | 14.47581 | 14018 ft | 272 kts | 132° |
| 2026-04-29 17:28 | 41.26636 | 14.49691 | 13598 ft | 270 kts | 112° |
| 2026-04-29 17:28 | 41.26027 | 14.52029 | 12961 ft | 272 kts | 105° |
| 2026-04-29 17:29 | 41.25523 | 14.54481 | 12394 ft | 271 kts | 103° |
| 2026-04-29 17:29 | 41.25060 | 14.56867 | 11910 ft | 268 kts | 103° |
| 2026-04-29 17:29 | 41.24608 | 14.59210 | 11650 ft | 257 kts | 103° |
| 2026-04-29 17:29 | 41.24309 | 14.60755 | 11454 ft | 253 kts | 103° |
| 2026-04-29 17:30 | 41.23732 | 14.63739 | 11162 ft | 258 kts | 103° |
| 2026-04-29 17:30 | 41.23283 | 14.66076 | 11049 ft | 263 kts | 103° |
| 2026-04-29 17:30 | 41.22829 | 14.68438 | 10924 ft | 264 kts | 103° |
| 2026-04-29 17:30 | 41.22376 | 14.70786 | 10776 ft | 260 kts | 103° |
| 2026-04-29 17:31 | 41.21860 | 14.73077 | 10567 ft | 258 kts | 112° |
| 2026-04-29 17:31 | 41.20830 | 14.75001 | 10313 ft | 257 kts | 140° |
| 2026-04-29 17:31 | 41.19383 | 14.76387 | 10018 ft | 256 kts | 148° |
| 2026-04-29 17:31 | 41.17866 | 14.77626 | 9704 ft | 256 kts | 149° |
| 2026-04-29 17:32 | 41.16337 | 14.78846 | 9407 ft | 255 kts | 151° |
| 2026-04-29 17:32 | 41.14716 | 14.79734 | 9111 ft | 250 kts | 172° |
| 2026-04-29 17:32 | 41.13112 | 14.79615 | 8849 ft | 241 kts | 201° |
| 2026-04-29 17:32 | 41.11741 | 14.78453 | 8591 ft | 232 kts | 229° |
| 2026-04-29 17:33 | 41.10793 | 14.76748 | 8330 ft | 228 kts | 238° |
| 2026-04-29 17:33 | 41.09961 | 14.74958 | 8082 ft | 227 kts | 240° |
| 2026-04-29 17:33 | 41.09162 | 14.73201 | 7986 ft | 219 kts | 240° |
| 2026-04-29 17:33 | 41.08389 | 14.71481 | 7755 ft | 216 kts | 241° |
| 2026-04-29 17:34 | 41.07659 | 14.69748 | 7530 ft | 215 kts | 241° |
| 2026-04-29 17:34 | 41.06903 | 14.68047 | 7310 ft | 213 kts | 239° |
| 2026-04-29 17:34 | 41.06128 | 14.66379 | 7067 ft | 213 kts | 239° |
| 2026-04-29 17:34 | 41.05346 | 14.64709 | 6815 ft | 214 kts | 238° |
| 2026-04-29 17:35 | 41.04018 | 14.61886 | 6258 ft | 220 kts | 238° |
| 2026-04-29 17:35 | 41.02926 | 14.59558 | 5775 ft | 225 kts | 238° |
| 2026-04-29 17:35 | 41.02106 | 14.57813 | 5434 ft | 227 kts | 238° |
| 2026-04-29 17:36 | 41.01266 | 14.56031 | 5097 ft | 229 kts | 238° |
| 2026-04-29 17:36 | 41.00417 | 14.54232 | 4758 ft | 232 kts | 238° |
| 2026-04-29 17:36 | 40.99553 | 14.52387 | 4424 ft | 233 kts | 238° |
| 2026-04-29 17:36 | 40.98705 | 14.50577 | 4065 ft | 235 kts | 237° |
| 2026-04-29 17:37 | 40.97836 | 14.48735 | 3732 ft | 236 kts | 238° |
| 2026-04-29 17:37 | 40.96979 | 14.46900 | 3378 ft | 232 kts | 238° |
| 2026-04-29 17:37 | 40.96146 | 14.45123 | 3054 ft | 221 kts | 238° |
| 2026-04-29 17:37 | 40.95353 | 14.43437 | 2726 ft | 211 kts | 238° |
| 2026-04-29 17:38 | 40.94594 | 14.41820 | 2431 ft | 202 kts | 238° |
| 2026-04-29 17:38 | 40.93873 | 14.40288 | 2129 ft | 190 kts | 238° |
| 2026-04-29 17:38 | 40.93208 | 14.38874 | 1869 ft | 173 kts | 238° |
| 2026-04-29 17:38 | 40.92591 | 14.37561 | 1632 ft | 165 kts | 237° |
| 2026-04-29 17:39 | 40.91994 | 14.36291 | 1408 ft | 162 kts | 236° |
| 2026-04-29 17:39 | 40.91407 | 14.35042 | 1193 ft | 157 kts | 236° |
| 2026-04-29 17:39 | 40.90843 | 14.33842 | 949 ft | 147 kts | 235° |
| 2026-04-29 17:39 | 40.90328 | 14.32747 | 740 ft | 134 kts | 234° |
| 2026-04-29 17:40 | 40.89849 | 14.31723 | 582 ft | 131 kts | 234° |
| 2026-04-29 17:40 | 40.89384 | 14.30699 | 355 ft | 130 kts | 234° |
| 2026-04-29 17:40 | 40.88895 | 14.29716 | 254 ft | 114 kts | 237° |
| 2026-04-29 17:40 | 40.88546 | 14.28952 | 274 ft | 80 kts | 238° |
| 2026-04-29 17:41 | 40.88366 | 14.28578 | 283 ft | 32 kts | 233° |
| 2026-04-29 17:41 | 40.88209 | 14.28409 | 288 ft | 22 kts | 208° |
| 2026-04-29 17:41 | 40.88131 | 14.28353 | 293 ft | 8 kts | 208° |
| 2026-04-29 17:41 | 40.88103 | 14.28332 | 294 ft | 1 kts | 208° |
| 2026-04-29 17:42 | 40.88092 | 14.28325 | 294 ft | 2 kts | 207° |
| 2026-04-29 17:42 | 40.88078 | 14.28322 | 294 ft | 1 kts | 178° |
| 2026-04-29 17:42 | 40.88073 | 14.28327 | 294 ft | 3 kts | 150° |
| 2026-04-29 17:42 | 40.88061 | 14.28361 | 294 ft | 6 kts | 109° |
| 2026-04-29 17:43 | 40.88052 | 14.28431 | 293 ft | 10 kts | 97° |
| 2026-04-29 17:43 | 40.88037 | 14.28515 | 293 ft | 9 kts | 120° |
| 2026-04-29 17:43 | 40.88010 | 14.28525 | 294 ft | 3 kts | 186° |
| 2026-04-29 17:43 | 40.87980 | 14.28505 | 292 ft | 8 kts | 214° |
| 2026-04-29 17:44 | 40.87940 | 14.28430 | 296 ft | 12 kts | 258° |
| 2026-04-29 17:44 | 40.87950 | 14.28297 | 294 ft | 17 kts | 277° |
| 2026-04-29 17:44 | 40.87960 | 14.28135 | 297 ft | 15 kts | 260° |
| 2026-04-29 17:44 | 40.87894 | 14.28014 | 302 ft | 17 kts | 230° |
| 2026-04-29 17:45 | 40.87848 | 14.27953 | 303 ft | 4 kts | 197° |
| 2026-04-29 17:45 | 40.87824 | 14.27959 | 305 ft | 6 kts | 159° |
| 2026-04-29 17:45 | 40.87792 | 14.27991 | 303 ft | 4 kts | 141° |
| 2026-04-29 17:45 | 40.87777 | 14.28008 | 303 ft | 0 kts | 140° |